Latest Weather Observations for Mandurah

IDW60801

Issued at 6:43 pm WST Sunday 26 September 2021 (issued every 10 minutes, with the page automatically refreshed every 10 minutes)

About weather observations | Map of weather stations | Latest weather observations for WA | Other Formats
Station Details ID: 009977 Name: MANDURAH Lat: -32.52 Lon: 115.71 Height: 3.0 m
Data from the previous 72 hours. | See also: Recent months at Mandurah
Date/Time
WST
Temp
°C
App
Temp
°C
Dew
Point
°C
Rel
Hum
%
Delta-T
°C
Wind Press
QNH
hPa
Press
MSL
hPa
Rain since
9am
mm
Dir  Spd
km/h
Gust
km/h
Spd
kts
Gust
kts
26/06:30pm 16.8 13.4 10.6 67 3.3 WNW 19 30 10 16 1009.3 1009.3 0.0
26/06:00pm 17.3 13.9 11.1 67 3.3 W 20 30 11 16 1009.0 1009.0 0.0
26/05:30pm 17.9 14.4 10.8 63 3.8 W 20 32 11 17 1008.6 1008.6 0.0
26/05:00pm 18.3 15.6 11.8 66 3.6 W 17 28 9 15 1008.4 1008.4 0.0
26/04:30pm 18.4 15.2 11.9 66 3.6 W 20 32 11 17 1008.1 1008.1 0.0
26/04:00pm 18.8 15.1 11.4 62 4.1 W 22 32 12 17 1007.8 1007.8 0.0
26/03:30pm 18.9 14.8 11.5 62 4.1 W 24 33 13 18 1007.8 1007.8 0.0
26/03:00pm 18.8 15.3 12.1 65 3.7 W 22 35 12 19 1007.5 1007.5 0.0
26/02:30pm 19.4 15.4 11.7 61 4.2 W 24 33 13 18 1007.4 1007.4 0.0
26/02:00pm 19.2 15.3 12.2 64 3.9 W 24 35 13 19 1007.1 1007.1 0.0
26/01:30pm 20.2 16.9 12.7 62 4.2 W 22 32 12 17 1006.9 1006.9 0.0
26/01:00pm 19.9 15.7 12.4 62 4.2 W 26 37 14 20 1007.0 1007.0 0.0
26/12:30pm 19.9 16.6 12.7 63 4.1 WNW 22 32 12 17 1007.0 1007.0 0.0
26/12:00pm 19.7 18.4 13.6 68 3.5 WNW 13 17 7 9 1007.1 1007.1 0.0
26/11:30am 19.1 18.1 13.3 69 3.3 WNW 11 15 6 8 1007.4 1007.4 0.0
26/11:00am 19.4 19.0 13.1 67 3.6 W 7 13 4 7 1007.2 1007.2 0.0
26/10:30am 18.4 16.4 12.8 70 3.1 WNW 15 22 8 12 1007.4 1007.4 0.0
26/10:00am 18.1 16.9 12.8 71 3.0 NW 11 19 6 10 1007.5 1007.5 0.0
26/09:30am 17.8 17.5 12.7 72 2.8 NNW 6 7 3 4 1007.3 1007.3 0.0
26/09:00am 17.3 16.7 12.2 72 2.8 NW 7 9 4 5 1007.3 1007.3 0.0
26/08:30am 16.6 15.7 11.5 72 2.8 NW 7 9 4 5 1007.1 1007.1 0.0
26/08:00am 15.8 14.9 11.2 74 2.5 NW 7 9 4 5 1006.8 1006.8 0.0
26/07:30am 15.0 14.2 11.2 78 2.0 NNW 6 9 3 5 1006.7 1006.7 0.0
26/07:00am 13.6 13.2 11.0 84 1.4 SE 4 6 2 3 1006.6 1006.6 0.0
26/06:30am 12.0 11.7 8.8 81 1.6 CALM 0 0 0 0 1005.9 1005.9 0.0
26/06:00am 12.8 12.7 9.6 81 1.6 CALM 0 0 0 0 1005.7 1005.7 0.0
26/05:30am 12.6 12.4 9.2 80 1.7 CALM 0 0 0 0 1005.5 1005.5 0.0
26/05:00am 12.7 12.6 9.5 81 1.6 CALM 0 0 0 0 1005.2 1005.2 0.0
26/04:30am 12.9 12.7 9.2 78 1.9 CALM 0 0 0 0 1005.1 1005.1 0.0
26/04:00am 12.8 12.4 8.3 74 2.2 CALM 0 0 0 0 1005.1 1005.1 0.0
26/03:30am 13.8 12.8 9.0 73 2.4 SSE 4 6 2 3 1005.0 1005.0 0.0
26/03:00am 14.2 12.9 9.2 72 2.6 SE 6 7 3 4 1004.9 1004.9 0.0
26/02:30am 14.4 12.4 8.6 68 2.9 SE 9 15 5 8 1004.8 1004.8 0.0
26/02:00am 14.8 13.3 9.2 69 2.9 SSE 7 13 4 7 1004.9 1004.9 0.0
26/01:30am 14.9 12.0 8.2 64 3.4 SSE 13 19 7 10 1005.0 1005.0 0.0
26/01:00am 15.0 13.0 8.7 66 3.2 S 9 13 5 7 1005.2 1005.2 0.0
26/12:30am 15.2 13.7 9.3 68 3.0 SSW 7 9 4 5 1005.7 1005.7 0.0
26/12:00am 15.3 13.3 8.5 64 3.5 SSE 9 13 5 7 1005.8 1005.8 0.0
 
Date/Time
WST
Temp
°C
App
Temp
°C
Dew
Point
°C
Rel
Hum
%
Delta-T
°C
Wind Press
QNH
hPa
Press
MSL
hPa
Rain since
9am
mm
Dir  Spd
km/h
Gust
km/h
Spd
kts
Gust
kts
25/11:30pm 15.6 13.1 9.7 68 3.1 SSE 13 17 7 9 1006.2 1006.2 0.0
25/11:00pm 15.9 14.3 10.2 69 3.0 SSE 9 13 5 7 1006.9 1006.9 0.0
25/10:30pm 16.3 14.4 10.4 68 3.1 SSE 11 17 6 9 1007.3 1007.3 0.0
25/10:00pm 16.9 14.5 10.1 64 3.6 SSE 13 20 7 11 1007.4 1007.4 0.0
25/09:30pm 17.2 14.8 10.1 63 3.8 SSE 13 19 7 10 1008.0 1008.0 0.0
25/09:00pm 18.1 16.1 10.2 60 4.2 SSE 11 20 6 11 1008.2 1008.2 0.0
25/08:30pm 18.4 17.0 10.8 61 4.1 SSE 9 15 5 8 1008.2 1008.2 0.0
25/08:00pm 18.9 16.5 9.9 56 4.8 SSE 13 17 7 9 1008.1 1008.1 0.0
25/07:30pm 19.0 16.6 10.0 56 4.8 SSE 13 20 7 11 1007.9 1007.9 0.0
25/07:00pm 19.2 16.9 10.5 57 4.7 SSE 13 19 7 10 1007.7 1007.7 0.0
25/06:30pm 19.8 17.8 10.2 54 5.2 SSE 11 15 6 8 1007.5 1007.5 0.0
25/06:00pm 20.4 18.5 10.5 53 5.4 SSE 11 15 6 8 1007.2 1007.2 0.0
25/05:30pm 21.5 19.5 8.7 44 6.8 SE 9 15 5 8 1007.1 1007.1 0.0
25/05:00pm 21.7 19.7 8.6 43 6.9 NE 9 13 5 7 1007.2 1007.2 0.0
25/04:30pm 22.2 19.8 6.8 37 7.9 E 9 17 5 9 1007.4 1007.4 0.0
25/04:00pm 21.9 19.2 9.1 44 6.8 NE 13 19 7 10 1007.6 1007.6 0.0
25/03:30pm 22.7 19.2 7.3 37 8.0 ENE 15 28 8 15 1007.9 1007.9 0.0
25/03:00pm 22.9 19.4 7.4 37 8.1 ENE 15 24 8 13 1008.1 1008.1 0.0
25/02:30pm 22.3 19.4 8.1 40 7.5 ESE 13 22 7 12 1008.3 1008.3 0.0
25/02:00pm 22.2 19.3 8.3 41 7.3 ENE 13 22 7 12 1008.6 1008.6 0.0
25/01:30pm 21.3 18.7 7.9 42 7.0 ESE 11 19 6 10 1009.0 1009.0 0.0
25/01:00pm 20.6 17.2 7.6 43 6.7 ESE 15 24 8 13 1009.6 1009.6 0.0
25/12:30pm 19.5 16.4 7.3 45 6.2 E 13 24 7 13 1010.5 1010.5 0.0
25/12:00pm 18.0 14.7 6.5 47 5.7 SE 13 20 7 11 1011.3 1011.3 0.0
25/11:30am 17.7 14.1 6.6 48 5.5 ESE 15 26 8 14 1011.8 1011.8 0.0
25/11:00am 17.5 13.3 5.8 46 5.7 E 17 26 9 14 1011.9 1011.9 0.0
25/10:30am 17.3 12.6 5.3 45 5.8 E 19 30 10 16 1012.4 1012.4 0.0
25/10:00am 16.6 12.0 5.6 48 5.3 E 19 32 10 17 1013.1 1013.1 0.0
25/09:30am 16.7 12.1 5.6 48 5.3 E 19 32 10 17 1013.5 1013.5 0.0
25/09:00am 15.7 11.1 5.6 51 4.8 E 19 32 10 17 1013.8 1013.8 0.0
25/08:30am 13.8 9.2 5.7 58 3.8 ESE 19 28 10 15 1013.9 1013.9 0.0
25/08:00am 12.9 8.6 5.3 60 3.5 ESE 17 32 9 17 1014.1 1014.1 0.0
25/07:30am 12.1 8.1 5.0 62 3.3 ESE 15 24 8 13 1014.3 1014.3 0.0
25/07:00am 11.4 7.4 5.1 65 2.9 SE 15 20 8 11 1014.5 1014.5 0.0
25/06:30am 10.9 7.2 4.6 65 2.8 ESE 13 22 7 12 1014.7 1014.7 0.0
25/06:00am 10.6 6.9 4.5 66 2.7 ESE 13 19 7 10 1014.9 1014.9 0.0
25/05:30am 10.8 7.1 4.7 66 2.7 SE 13 20 7 11 1015.0 1015.0 0.0
25/05:00am 10.9 7.2 4.6 65 2.8 SE 13 22 7 12 1015.2 1015.2 0.0
25/04:30am 10.9 6.8 4.4 64 2.9 ESE 15 28 8 15 1015.5 1015.5 0.0
25/04:00am 10.9 7.6 4.4 64 2.9 ESE 11 20 6 11 1015.9 1015.9 0.0
25/03:30am 11.1 7.4 4.6 64 2.9 ESE 13 22 7 12 1016.1 1016.1 0.0
25/03:00am 11.2 6.8 4.7 64 2.9 ESE 17 24 9 13 1016.5 1016.5 0.0
25/02:30am 11.4 7.0 4.8 64 3.0 ESE 17 32 9 17 1017.0 1017.0 0.0
25/02:00am 11.7 7.7 4.9 63 3.1 ESE 15 22 8 12 1017.5 1017.5 0.0
25/01:30am 11.9 7.9 4.9 62 3.2 ESE 15 20 8 11 1017.9 1017.9 0.0
25/01:00am 12.2 8.6 4.9 61 3.3 ESE 13 28 7 15 1018.3 1018.3 0.0
25/12:30am 12.5 8.2 5.2 61 3.4 SE 17 28 9 15 1018.3 1018.3 0.0
25/12:00am 13.0 8.4 5.4 60 3.5 SE 19 28 10 15 1018.6 1018.6 0.0
 
Date/Time
WST
Temp
°C
App
Temp
°C
Dew
Point
°C
Rel
Hum
%
Delta-T
°C
Wind Press
QNH
hPa
Press
MSL
hPa
Rain since
9am
mm
Dir  Spd
km/h
Gust
km/h
Spd
kts
Gust
kts
24/11:30pm 13.3 8.4 5.0 57 3.8 ESE 20 35 11 19 1018.8 1018.8 0.0
24/11:00pm 13.8 9.1 5.2 56 4.0 ESE 19 28 10 15 1019.1 1019.1 0.0
24/10:30pm 14.2 9.9 5.3 55 4.2 ESE 17 26 9 14 1019.4 1019.4 0.0
24/10:00pm 14.7 10.5 5.5 54 4.3 SE 17 22 9 12 1019.6 1019.6 0.0
24/09:30pm 14.9 11.1 6.0 55 4.3 SE 15 24 8 13 1019.7 1019.7 0.0
24/09:00pm 15.2 11.5 6.2 55 4.3 SE 15 20 8 11 1020.0 1020.0 0.0
24/08:30pm 15.5 11.7 5.7 52 4.7 SSE 15 20 8 11 1020.0 1020.0 0.0
24/08:00pm 16.1 12.3 5.7 50 5.0 SE 15 20 8 11 1020.0 1020.0 0.0
24/07:30pm 16.5 12.3 5.8 49 5.2 SE 17 26 9 14 1020.0 1020.0 0.0
24/07:00pm 16.8 13.0 5.7 48 5.3 SE 15 22 8 12 1019.8 1019.8 0.0
24/06:30pm 17.4 13.7 6.3 48 5.5 SE 15 20 8 11 1019.6 1019.6 0.0
24/06:00pm 18.1 13.9 5.7 44 6.0 SE 17 24 9 13 1019.6 1019.6 0.0
24/05:30pm 18.5 14.2 5.4 42 6.4 SE 17 28 9 15 1019.6 1019.6 0.0
24/05:00pm 19.0 15.0 5.1 40 6.7 SE 15 24 8 13 1019.7 1019.7 0.0
24/04:30pm 19.1 14.1 4.8 39 6.9 SE 20 28 11 15 1019.7 1019.7 0.0
24/04:00pm 19.4 14.6 4.7 38 7.1 SE 19 28 10 15 1019.9 1019.9 0.0
24/03:30pm 19.5 15.1 4.8 38 7.1 ESE 17 28 9 15 1020.3 1020.3 0.0
24/03:00pm 19.4 14.6 4.4 37 7.2 SE 19 32 10 17 1020.5 1020.5 0.0
24/02:30pm 19.5 15.2 5.2 39 7.0 ESE 17 30 9 16 1020.8 1020.8 0.0
24/02:00pm 19.4 14.8 5.5 40 6.8 SE 19 35 10 19 1021.3 1021.3 0.0
24/01:30pm 19.2 14.9 5.3 40 6.8 ESE 17 32 9 17 1021.7 1021.7 0.0
24/01:00pm 18.8 15.0 5.6 42 6.4 SE 15 33 8 18 1022.3 1022.3 0.0
24/12:30pm 18.4 13.6 5.6 43 6.2 SE 20 32 11 17 1022.9 1022.9 0.0
24/12:00pm 17.7 13.3 5.0 43 6.1 ESE 17 30 9 16 1023.4 1023.4 0.0
24/11:30am 18.2 14.8 5.8 44 6.1 ESE 13 26 7 14 1023.8 1023.8 0.0
24/11:00am 17.3 13.0 5.3 45 5.7 ESE 17 32 9 17 1024.4 1024.4 0.0
24/10:30am 16.5 12.2 5.2 47 5.4 ESE 17 30 9 16 1024.8 1024.8 0.0
24/10:00am 15.5 10.2 4.8 49 5.0 ESE 22 33 12 18 1025.4 1025.4 0.0
24/09:30am 15.4 10.5 5.3 51 4.8 ESE 20 32 11 17 1025.6 1025.6 0.0
24/09:00am 14.7 10.0 5.0 52 4.5 ESE 19 32 10 17 1025.9 1025.9 0.0
24/08:30am 13.7 9.5 5.8 59 3.7 ESE 17 28 9 15 1026.1 1026.1 0.0
24/08:00am 13.1 8.9 5.8 61 3.4 ESE 17 28 9 15 1026.1 1026.1 0.0
24/07:30am 12.7 8.2 6.1 64 3.1 ESE 19 28 10 15 1025.8 1025.8 0.0
24/07:00am 12.4 8.3 6.0 65 3.0 ESE 17 24 9 13 1025.6 1025.6 0.0
24/06:30am 12.2 8.9 6.3 67 2.8 SE 13 20 7 11 1025.2 1025.2 0.0
24/06:00am 12.7 10.0 7.4 70 2.6 SE 11 19 6 10 1025.0 1025.0 0.0
24/05:30am 12.9 9.8 7.4 69 2.7 SE 13 22 7 12 1024.6 1024.6 0.0
24/05:00am 12.7 10.0 7.4 70 2.6 SE 11 17 6 9 1024.2 1024.2 0.0
24/04:30am 12.6 9.2 7.7 72 2.4 SSE 15 22 8 12 1024.0 1024.0 0.0
24/04:00am 12.5 9.6 8.0 74 2.2 SE 13 19 7 10 1024.0 1024.0 0.0
24/03:30am 12.6 10.1 8.3 75 2.1 SE 11 17 6 9 1023.9 1023.9 0.0
24/03:00am 12.8 10.3 8.3 74 2.2 SE 11 17 6 9 1023.9 1023.9 0.0
24/02:30am 13.1 10.3 8.6 74 2.2 SE 13 17 7 9 1023.9 1023.9 0.0
24/02:00am 13.2 10.4 8.5 73 2.3 SE 13 19 7 10 1024.1 1024.1 0.0
24/01:30am 13.5 11.1 8.6 72 2.5 SE 11 19 6 10 1024.2 1024.2 0.0
24/01:00am 13.7 10.5 8.5 71 2.6 SE 15 24 8 13 1024.4 1024.4 0.0
24/12:30am 13.8 10.6 8.4 70 2.7 SE 15 24 8 13 1024.4 1024.4 0.0
24/12:00am 14.1 10.2 8.5 69 2.8 SE 19 26 10 14 1024.5 1024.5 0.0
 
Date/Time
WST
Temp
°C
App
Temp
°C
Dew
Point
°C
Rel
Hum
%
Delta-T
°C
Wind Press
QNH
hPa
Press
MSL
hPa
Rain since
9am
mm
Dir  Spd
km/h
Gust
km/h
Spd
kts
Gust
kts
23/11:30pm 14.4 10.9 8.6 68 2.9 SE 17 28 9 15 1024.4 1024.4 0.0
23/11:00pm 14.7 12.0 9.1 69 2.8 SE 13 20 7 11 1024.4 1024.4 0.0
23/10:30pm 15.0 12.0 9.1 68 3.0 SE 15 24 8 13 1024.4 1024.4 0.0
23/10:00pm 15.3 11.5 9.2 67 3.1 SE 19 26 10 14 1024.3 1024.3 0.0
23/09:30pm 15.7 12.5 9.8 68 3.1 SE 17 28 9 15 1024.3 1024.3 0.0
23/09:00pm 16.3 11.8 10.2 67 3.2 SSE 24 37 13 20 1024.0 1024.0 0.0
23/08:30pm 16.8 13.4 11.3 70 3.0 SSE 20 30 11 16 1023.6 1023.6 0.0
23/08:00pm 17.7 14.1 11.7 68 3.3 SSE 22 32 12 17 1023.3 1023.3 0.0
23/07:30pm 18.3 15.6 11.8 66 3.6 SSE 17 30 9 16 1022.6 1022.6 0.0
23/07:00pm 18.4 15.1 11.7 65 3.7 S 20 35 11 19 1022.2 1022.2 0.0

Other formats

Comma delimited format used in spreadsheet applications
http://www.bom.gov.au/fwo/IDW60801/IDW60801.94605.axf

JavaScript Object Notation format (JSON) in row-major order
http://www.bom.gov.au/fwo/IDW60801/IDW60801.94605.json

Data quality

Most of these data are generated automatically and are frequently updated. Quality checks on data are not normally performed. It is possible for incorrect values to appear. Refer to information at About Latest Weather Observations and please check the disclaimer before using these data.